Latest Coastal Weather Observations for Coffs Harbour Airport

IDN60701

Issued at 4:42 pm EDT Thursday 25 February 2021 (issued every 10 minutes, with the page automatically refreshed every 10 minutes)

About coastal observations | Map of coastal stations | Coastal observations for NSW | Marine services | Other Formats
Station Details ID: 059151 Name: COFFS HARBOUR AIRPORT Lat: -30.32 Lon: 153.12 Height: 3.5 m
Data from the previous 72 hours. | See also: Recent months at Coffs Harbour Airport
Date/Time
EDT
Wind Sea
Height
m
Swell Vis
km
Cloud Weather Temp
°C
Press
MSL
hPa
Rain since
9am
mm
Dir  Spd
kts
Gust
kts
Height
m
Period
s
Dir
25/04:30pm NNE 18 26 - - - - 10 Clear - 25.6 1009.7 0.0
25/04:00pm NE 16 22 - - - - 10 - - 25.8 1010.2 0.0
25/03:30pm NE 17 21 - - - - 10 Partly cloudy - 26.7 1010.7 0.0
25/03:00pm NE 18 24 - - - - 10 Cloudy - 25.6 1010.9 0.0
25/02:30pm NE 15 20 - - - - 10 Partly cloudy - 26.8 1011.2 0.0
25/02:00pm NE 15 20 - - - - 10 Partly cloudy - 26.8 1011.5 0.0
25/01:30pm N 9 18 - - - - 10 Partly cloudy - 28.4 1011.9 0.0
25/01:00pm N 9 17 - - - - 10 Partly cloudy - 28.0 1012.2 0.0
25/12:30pm N 12 17 - - - - 10 Partly cloudy - 27.0 1012.6 0.0
25/12:00pm NNW 12 16 - - - - 10 Mostly cloudy - 26.1 1012.8 0.0
25/11:30am N 13 17 - - - - 10 Partly cloudy - 26.6 1013.0 0.0
25/11:00am N 11 15 - - - - 10 Partly cloudy - 25.4 1013.3 0.0
25/10:30am N 11 15 - - - - 10 Partly cloudy - 24.7 1013.6 0.0
25/10:00am N 9 14 - - - - 10 Partly cloudy - 24.1 1013.7 0.0
25/09:30am NNW 7 9 - - - - 10 Partly cloudy - 23.7 1013.8 0.0
25/09:00am NW 9 14 - - - - 10 Cloudy - 22.7 1013.9 63.2
25/08:30am NNW 8 10 - - - - 10 Partly cloudy - 22.0 1013.8 63.2
25/08:00am NW 6 8 - - - - 10 Partly cloudy - 22.3 1013.8 63.2
25/07:30am NNW 5 6 - - - - 10 - - 21.3 1013.6 63.2
25/07:00am N 3 4 - - - - 10 Partly cloudy - 20.2 1013.5 63.2
25/06:30am NW 4 5 - - - - 10 Partly cloudy - 20.0 1013.7 63.2
25/06:16am NW 4 6 - - - - 10 Partly cloudy - 20.3 1013.7 63.2
25/06:00am NW 6 7 - - - - 10 Cloudy - 20.4 1014.0 63.2
25/05:30am NNE 7 8 - - - - 10 Partly cloudy - 21.0 1013.8 63.2
25/05:00am NNE 6 10 - - - - 10 Partly cloudy - 20.9 1014.2 63.2
25/04:50am NNE 7 9 - - - - 10 Partly cloudy - 20.9 1014.4 63.2
25/04:35am NE 7 9 - - - - 9 Partly cloudy - 20.9 1014.5 63.2
25/04:30am NE 9 12 - - - - 8 Partly cloudy - 20.8 1014.5 63.2
25/04:11am NE 7 10 - - - - 6 Partly cloudy - 21.0 1014.8 61.8
25/04:08am NE 7 10 - - - - 7 Partly cloudy - 21.0 1014.8 61.4
25/04:00am NE 8 10 - - - - 5 Partly cloudy - 21.0 1014.8 61.0
25/03:34am ENE 5 7 - - - - 6 Partly cloudy - 20.9 1015.1 59.8
25/03:30am ENE 4 6 - - - - 6 Partly cloudy - 20.9 1015.1 59.6
25/03:00am ENE 6 12 - - - - 5 Cloudy Rain 20.8 1015.4 57.8
25/02:57am ENE 7 12 - - - - 5 Partly cloudy - 20.8 1015.4 57.4
25/02:30am E 9 14 - - - - 5 Partly cloudy - 21.1 1015.6 55.4
25/02:00am ESE 10 14 - - - - 4 Partly cloudy - 21.2 1015.8 53.0
25/01:34am ESE 7 10 - - - - 5 Partly cloudy - 21.3 1016.3 51.4
25/01:30am ESE 7 10 - - - - 5 Partly cloudy - 21.1 1016.5 51.0
25/01:00am ESE 11 15 - - - - 5 Partly cloudy - 21.5 1016.6 48.6
25/12:30am SE 7 10 - - - - 5 Partly cloudy - 21.7 1016.3 46.6
25/12:00am E 8 11 - - - - 6 Cloudy Rain 21.2 1016.6 44.6
 
Date/Time
EDT
Wind Sea
Height
m
Swell Vis
km
Cloud Weather Temp
°C
Press
MSL
hPa
Rain since
9am
mm
Dir  Spd
kts
Gust
kts
Height
m
Period
s
Dir
24/11:58pm ESE 8 11 - - - - 6 Partly cloudy - 21.4 1016.7 44.4
24/11:54pm E 9 11 - - - - 7 Partly cloudy - 21.3 1016.7 44.2
24/11:30pm ENE 8 14 - - - - 6 Partly cloudy - 21.6 1016.3 43.6
24/11:25pm NE 8 14 - - - - 6 Partly cloudy - 21.2 1016.4 43.4
24/11:12pm SE 10 16 - - - - 4 Partly cloudy - 21.5 1016.3 42.6
24/11:00pm E 7 13 - - - - 2 Partly cloudy - 20.8 1016.2 40.2
24/10:30pm ENE 5 6 - - - - 5 Partly cloudy - 20.6 1016.2 27.6
24/10:00pm SE 5 8 - - - - 3 Partly cloudy - 20.8 1016.3 24.8
24/09:30pm ESE 8 10 - - - - 3 Partly cloudy - 21.2 1016.2 22.0
24/09:00pm NNE 4 7 - - - - 2 Cloudy Rain 20.7 1016.2 16.0
24/08:30pm ENE 7 10 - - - - 2 Partly cloudy - 21.1 1016.0 12.0
24/08:25pm NE 7 11 - - - - 2 Partly cloudy - 21.1 1015.9 11.4
24/08:00pm E 10 15 - - - - 6 Partly cloudy - 22.4 1015.6 4.8
24/07:59pm E 9 15 - - - - 6 Partly cloudy - 22.5 1015.6 4.8
24/07:54pm E 10 14 - - - - 9 Partly cloudy - 22.6 1015.3 4.2
24/07:30pm E 11 16 - - - - 8 Partly cloudy - 22.7 1015.0 3.6
24/07:11pm E 10 14 - - - - 7 Partly cloudy - 22.6 1015.1 3.6
24/07:08pm E 9 13 - - - - 8 Partly cloudy - 22.5 1015.0 3.4
24/07:01pm E 8 13 - - - - 7 Partly cloudy - 22.5 1014.9 3.4
24/07:00pm E 8 13 - - - - 7 Partly cloudy - 22.4 1014.9 3.4
24/06:56pm E 8 15 - - - - 6 Partly cloudy - 22.5 1015.1 3.2
24/06:41pm E 12 16 - - - - 8 Partly cloudy - 22.2 1014.7 2.8
24/06:39pm E 12 16 - - - - 8 Partly cloudy - 22.2 1014.6 2.8
24/06:30pm E 10 15 - - - - 10 Partly cloudy - 21.9 1014.4 2.8
24/06:24pm E 10 14 - - - - 10 Partly cloudy - 21.2 1014.4 2.8
24/06:00pm WSW 6 9 - - - - 10 Cloudy Rain 21.0 1014.8 2.8
24/05:30pm W 5 7 - - - - 10 Partly cloudy - 21.1 1014.8 2.8
24/05:27pm W 6 12 - - - - 10 Partly cloudy - 21.1 1014.8 2.8
24/05:09pm WNW 5 7 - - - - 6 Cloudy - 21.0 1014.7 2.6
24/05:00pm WSW 5 7 - - - - 10 Partly cloudy - 21.0 1014.7 2.0
24/04:30pm WNW 6 7 - - - - 10 Partly cloudy - 21.1 1014.4 2.0
24/04:09pm W 7 8 - - - - 10 Partly cloudy - 21.2 1014.8 2.0
24/04:00pm WNW 6 8 - - - - 7 Partly cloudy - 21.3 1014.7 2.0
24/03:32pm WNW 5 6 - - - - 6 Partly cloudy - 21.5 1015.1 1.2
24/03:30pm WNW 5 6 - - - - 7 Partly cloudy - 21.3 1015.0 1.0
24/03:00pm NW 6 8 - - - - 9 Cloudy Showers 21.7 1015.1 0.8
24/02:55pm NNW 5 8 - - - - 9 Partly cloudy - 21.7 1015.2 0.6
24/02:35pm N 4 6 - - - - 6 Partly cloudy - 22.0 1015.5 0.4
24/02:30pm WNW 3 6 - - - - 10 Partly cloudy - 21.9 1015.6 0.2
24/02:00pm WSW 5 7 - - - - 10 Partly cloudy - 22.4 1015.9 0.0
24/01:30pm WSW 6 7 - - - - 10 Partly cloudy - 22.2 1016.3 0.0
24/01:00pm WSW 7 9 - - - - 10 Partly cloudy - 22.5 1016.6 0.0
24/12:30pm WSW 6 7 - - - - 10 Partly cloudy - 21.8 1016.8 0.0
24/12:00pm WSW 7 9 - - - - 10 Cloudy Drizzle 21.7 1016.9 0.0
24/11:30am WSW 6 8 - - - - 10 Cloudy - 21.0 1017.2 0.0
24/11:00am WSW 7 8 - - - - 10 Partly cloudy - 20.8 1017.3 0.0
24/10:30am WSW 6 8 - - - - 10 Partly cloudy - 20.6 1017.3 0.0
24/10:00am W 6 7 - - - - 10 Partly cloudy - 20.4 1017.3 0.0
24/09:30am WSW 5 6 - - - - 10 Partly cloudy - 20.1 1017.1 0.0
24/09:00am WNW 6 7 - - - - 10 Cloudy Showers 19.8 1016.7 42.4
24/08:41am CALM 0 0 - - - - 10 Partly cloudy - 19.6 1016.5 42.4
24/08:30am CALM 0 0 - - - - 5 Partly cloudy - 19.7 1016.5 42.4
24/08:00am NE 3 5 - - - - 6 Partly cloudy - 19.5 1016.3 42.2
24/07:58am NE 3 5 - - - - 6 Partly cloudy - 19.5 1016.3 42.0
24/07:30am NE 6 7 - - - - 10 Partly cloudy - 19.5 1016.0 42.0
24/07:00am ESE 6 11 - - - - 10 Partly cloudy - 20.2 1015.7 42.0
24/06:48am ESE 5 8 - - - - 10 Partly cloudy - 19.8 1015.5 42.0
24/06:30am E 9 13 - - - - 6 Partly cloudy - 19.6 1015.4 42.0
24/06:05am ENE 9 14 - - - - 6 Partly cloudy - 19.9 1015.4 41.8
24/06:00am E 11 14 - - - - 10 Cloudy Showers 20.1 1015.2 41.8
24/05:30am ESE 5 8 - - - - 10 Partly cloudy - 19.4 1015.0 41.8
24/05:19am E 5 6 - - - - 8 Partly cloudy - 19.2 1015.0 41.8
24/05:17am ENE 5 7 - - - - 8 Partly cloudy - 19.2 1015.0 41.6
24/05:00am ENE 6 9 - - - - 6 Partly cloudy - 19.4 1015.0 41.4
24/04:30am SW 7 9 - - - - 4 Partly cloudy - 19.4 1014.5 38.2
24/04:00am W 1 5 - - - - 4 Partly cloudy - 19.5 1014.6 32.8
24/03:50am W 5 7 - - - - 5 Partly cloudy - 19.4 1014.6 31.8
24/03:31am SSW 8 11 - - - - 2 Partly cloudy - 19.5 1014.5 30.4
24/03:30am SSW 9 14 - - - - 2 Partly cloudy - 19.5 1014.5 30.0
24/03:10am SSW 6 10 - - - - 1 Partly cloudy - 19.7 1014.5 24.6
24/03:00am SW 8 12 - - - - 1 Mostly cloudy Showers 19.9 1014.4 20.0
24/02:40am SW 3 6 - - - - 5 Partly cloudy - 20.0 1014.5 7.6
24/02:30am WSW 8 12 - - - - 10 Partly cloudy - 20.1 1014.3 6.4
24/02:00am W 6 10 - - - - 10 Cloudy - 20.4 1014.5 6.4
24/01:30am SE 9 13 - - - - 10 Partly cloudy - 22.8 1015.0 6.4
24/01:00am ESE 10 15 - - - - 10 Partly cloudy - 22.5 1015.2 6.4
24/12:30am ESE 11 14 - - - - 10 Partly cloudy - 22.6 1015.0 6.4
24/12:00am ESE 11 15 - - - - 10 Cloudy Drizzle 22.1 1015.4 6.4
 
Date/Time
EDT
Wind Sea
Height
m
Swell Vis
km
Cloud Weather Temp
°C
Press
MSL
hPa
Rain since
9am
mm
Dir  Spd
kts
Gust
kts
Height
m
Period
s
Dir
23/11:46pm ESE 11 16 - - - - 7 Partly cloudy - 21.9 1015.4 6.4
23/11:30pm SE 13 17 - - - - 6 Partly cloudy - 21.7 1015.3 6.2
23/11:00pm ESE 10 15 - - - - 6 Partly cloudy - 21.7 1015.1 5.6
23/10:59pm ESE 10 16 - - - - 6 Partly cloudy - 21.8 1015.1 5.4
23/10:30pm ESE 14 20 - - - - 10 Partly cloudy - 22.3 1015.2 5.2
23/10:25pm ESE 13 17 - - - - 10 Partly cloudy - 22.6 1015.1 5.2
23/10:06pm SE 14 20 - - - - 6 Partly cloudy - 22.1 1015.0 5.2
23/10:00pm SE 12 17 - - - - 10 Partly cloudy - 22.7 1015.1 5.2
23/09:30pm SE 11 15 - - - - 10 Partly cloudy - 22.7 1014.9 5.2
23/09:00pm SE 11 17 - - - - 10 Mostly cloudy Rain 22.2 1014.2 5.2
23/08:30pm SE 12 17 - - - - 10 Partly cloudy - 22.1 1013.8 4.8
23/08:00pm SE 11 15 - - - - 9 Cloudy - 21.9 1013.2 4.6
23/07:55pm SE 11 15 - - - - 10 Partly cloudy - 21.9 1013.2 4.6
23/07:30pm SE 13 17 - - - - 6 Partly cloudy - 21.6 1012.6 3.8
23/07:27pm SE 13 17 - - - - 6 Partly cloudy - 21.8 1012.7 3.6
23/07:00pm SSE 13 18 - - - - 10 Partly cloudy - 22.5 1012.2 2.8
23/06:30pm SE 17 22 - - - - 10 Cloudy - 22.1 1011.4 2.8
23/06:11pm SE 16 21 - - - - 8 Partly cloudy - 21.8 1011.5 2.6
23/06:00pm SE 15 21 - - - - 6 Mostly cloudy Rain 21.8 1011.4 2.2
23/05:30pm SE 16 20 - - - - 5 Cloudy - 22.0 1011.6 1.2
23/05:15pm SE 15 21 - - - - 6 Partly cloudy - 22.2 1011.3 0.6
23/05:00pm SE 15 21 - - - - 10 Partly cloudy - 22.7 1011.2 0.0
23/04:30pm SE 17 23 - - - - 10 Cloudy - 23.1 1010.5 0.0
23/04:00pm SE 17 22 - - - - 10 Cloudy - 23.1 1010.6 0.0
23/03:32pm SSE 18 23 - - - - 10 Cloudy - 22.9 1010.7 0.0
23/03:30pm SSE 18 23 - - - - 10 Partly cloudy - 22.8 1010.7 0.0
23/03:18pm SSE 18 23 - - - - 10 Partly cloudy - 23.0 1010.5 0.0
23/03:07pm SE 15 21 - - - - 10 Partly cloudy - 23.3 1010.3 0.0
23/03:00pm SSE 17 22 - - - - 10 Cloudy Rain 23.6 1010.4 0.0
23/02:50pm SE 15 20 - - - - 10 Partly cloudy - 23.9 1010.6 0.0
23/02:47pm SE 16 21 - - - - 10 Partly cloudy - 23.9 1010.6 0.0
23/02:32pm SSE 15 20 - - - - 10 Partly cloudy - 23.9 1010.5 0.0
23/02:30pm SSE 15 20 - - - - 10 Partly cloudy - 24.1 1010.5 0.0
23/02:13pm SSE 15 20 - - - - 10 Partly cloudy - 25.3 1010.5 0.0
23/02:00pm SSE 15 19 - - - - 10 Partly cloudy - 24.9 1010.7 0.0
23/01:43pm SSE 14 18 - - - - 10 Partly cloudy - 25.2 1010.8 0.0
23/01:40pm SSE 15 18 - - - - 10 Partly cloudy - 25.2 1010.7 0.0
23/01:30pm SSE 15 19 - - - - 10 Partly cloudy - 25.3 1010.8 0.0
23/01:27pm SSE 15 19 - - - - 10 Partly cloudy - 25.4 1010.8 0.0
23/01:00pm S 14 18 - - - - 10 Partly cloudy - 25.5 1010.9 0.0
23/12:58pm S 15 18 - - - - 10 Partly cloudy - 25.6 1010.9 0.0
23/12:30pm SSE 14 18 - - - - 10 Partly cloudy - 26.0 1010.9 0.0
23/12:19pm S 15 18 - - - - 10 Partly cloudy - 26.3 1011.0 0.0
23/12:00pm S 15 19 - - - - 10 Cloudy - 26.2 1011.1 0.0
23/11:30am S 13 16 - - - - 10 Partly cloudy - 26.7 1011.1 0.0
23/11:00am SSE 12 14 - - - - 10 Partly cloudy - 26.3 1010.8 0.0
23/10:30am SSE 7 10 - - - - 10 - - 26.9 1010.4 0.0
23/10:00am SSW 7 8 - - - - 8 Cloudy - 25.6 1010.2 0.0
23/09:30am SSW 4 5 - - - - 10 Cloudy - 25.4 1010.1 0.0
23/09:00am N 2 4 - - - - 10 Cloudy - 25.0 1009.8 0.0
23/08:30am N 1 4 - - - - 10 Partly cloudy - 24.1 1009.5 0.0
23/08:00am NNW 1 4 - - - - 10 Partly cloudy - 23.2 1009.5 0.0
23/07:34am CALM 0 0 - - - - 8 Cloudy - 22.7 1009.4 0.0
23/07:30am CALM 0 0 - - - - 8 Cloudy - 22.7 1009.3 0.0
23/07:03am CALM 0 0 - - - - 6 Partly cloudy - 21.7 1008.9 0.0
23/07:00am CALM 0 0 - - - - 7 Partly cloudy - 21.6 1008.9 0.0
23/06:30am CALM 0 0 - - - - 10 Partly cloudy - 22.4 1008.4 0.0
23/06:00am NNW 1 3 - - - - 10 Mostly cloudy - 22.4 1008.3 0.0
23/05:30am NNW 3 5 - - - - 10 Cloudy - 22.6 1007.9 0.0
23/05:00am NNW 4 4 - - - - 10 Cloudy - 22.7 1007.8 0.0
23/04:30am ESE 1 3 - - - - 10 Partly cloudy - 22.9 1007.7 0.0
23/04:00am ESE 5 6 - - - - 10 Partly cloudy - 22.8 1007.9 0.0
23/03:30am CALM 0 0 - - - - 10 Partly cloudy - 23.2 1007.9 0.0
23/03:00am CALM 0 0 - - - - 7 Cloudy - 23.2 1008.0 0.0
23/02:30am CALM 0 0 - - - - 10 Partly cloudy - 23.3 1007.9 0.0
23/02:00am WNW 2 4 - - - - 10 Partly cloudy - 23.1 1007.9 0.0
23/01:30am WNW 3 4 - - - - 10 Partly cloudy - 23.0 1008.0 0.0
23/01:00am CALM 0 2 - - - - 10 Partly cloudy - 23.0 1008.1 0.0
23/12:30am WNW 3 6 - - - - 10 Partly cloudy - 22.8 1008.4 0.0
23/12:00am NW 1 4 - - - - 10 Cloudy - 22.7 1008.4 0.0
 
Date/Time
EDT
Wind Sea
Height
m
Swell Vis
km
Cloud Weather Temp
°C
Press
MSL
hPa
Rain since
9am
mm
Dir  Spd
kts
Gust
kts
Height
m
Period
s
Dir
22/11:30pm WNW 3 5 - - - - 10 Cloudy - 22.6 1008.0 0.0
22/11:00pm CALM 0 0 - - - - 10 Cloudy - 22.7 1008.1 0.0
22/10:30pm WSW 3 4 - - - - 10 - - 22.5 1007.9 0.0
22/10:00pm WNW 5 6 - - - - 10 Partly cloudy - 22.6 1007.5 0.0
22/09:30pm WNW 5 6 - - - - 10 - - 22.7 1007.4 0.0
22/09:00pm CALM 0 0 - - - - 10 - - 23.4 1006.6 0.0
22/08:30pm W 5 6 - - - - 10 - - 23.5 1007.1 0.0
22/08:00pm S 5 6 - - - - 10 - - 23.9 1006.4 0.0
22/07:30pm S 3 4 - - - - 9 - - 24.7 1005.8 0.0
22/07:00pm SW 1 4 - - - - 10 - - 26.1 1005.5 0.0
22/06:30pm S 6 8 - - - - 10 - - 26.9 1005.1 0.0
22/06:00pm S 7 9 - - - - 10 - - 27.1 1004.6 0.0
22/05:30pm SSE 7 9 - - - - 10 - - 27.0 1004.1 0.0
22/05:00pm SSE 7 10 - - - - 10 - - 27.6 1003.8 0.0

Other formats

Comma delimited format used in spreadsheet applications
http://www.bom.gov.au/fwo/IDN60701/IDN60701.95729.axf

JavaScript Object Notation format (JSON) in row-major order
http://www.bom.gov.au/fwo/IDN60701/IDN60701.95729.json

Data quality

Most of these data are generated automatically and are frequently updated. Quality checks on data are not normally performed. It is possible for incorrect values to appear. Refer to information at About Latest Weather Observations and please check the disclaimer before using these data.